Time;durP1;ratioP1;P1;durP2;ratioP2;P2;SDS_P1;SDS_P2;PMS_P1;PMS_P2;Temp;Humidity;BMP_temperature;BMP_pressure;BME280_temperature;BME280_humidity;BME280_pressure;Samples;Min_cycle;Max_cycle;Signal;HPM_P1;HPM_P2
2021/07/29 00:00:41;;;;;;;1.42;1.33;;;;;;;;;;4916489;29;20227;-84
2021/07/29 00:03:09;;;;;;;1.60;1.50;;;;;;;;;;4916262;29;20650;-83
2021/07/29 00:05:38;;;;;;;1.75;1.30;;;;;;;;;;4916120;29;20199;-83
2021/07/29 00:08:06;;;;;;;1.38;1.27;;;;;;;;;;4915963;29;20190;-83
2021/07/29 00:10:34;;;;;;;1.25;1.20;;;;;;;;;;4916071;29;20222;-83
2021/07/29 00:13:04;;;;;;;1.00;1.00;;;;;;;;;;4916351;29;20217;-83
2021/07/29 00:15:31;;;;;;;1.15;1.05;;;;;;;;;;4916317;29;20198;-82
2021/07/29 00:20:45;;;;;;;1.00;1.00;;;;;;;;;;4916054;29;20225;-83
2021/07/29 00:23:12;;;;;;;1.20;1.10;;;;;;;;;;4916097;29;20216;-83
2021/07/29 00:25:40;;;;;;;2.88;1.42;;;;;;;;;;4915950;29;20199;-83
2021/07/29 00:28:07;;;;;;;1.05;1.05;;;;;;;;;;4924866;29;20652;-83
2021/07/29 00:30:35;;;;;;;1.50;1.40;;;;;;;;;;4936054;29;20244;-83
2021/07/29 00:33:04;;;;;;;1.50;1.40;;;;;;;;;;4938788;29;20206;-83
2021/07/29 00:35:31;;;;;;;1.63;1.50;;;;;;;;;;4938994;29;20209;-83
2021/07/29 00:38:02;;;;;;;1.40;1.30;;;;;;;;;;4938999;29;20212;-83
2021/07/29 00:40:30;;;;;;;2.08;1.88;;;;;;;;;;4939010;29;20273;-83
2021/07/29 00:42:58;;;;;;;1.30;1.20;;;;;;;;;;4938837;29;20186;-83
2021/07/29 00:45:26;;;;;;;1.15;1.05;;;;;;;;;;4938700;29;20201;-83
2021/07/29 00:47:55;;;;;;;1.55;1.45;;;;;;;;;;4939017;29;20201;-83
2021/07/29 00:50:25;;;;;;;1.20;1.10;;;;;;;;;;4938389;29;20241;-83
2021/07/29 00:52:53;;;;;;;1.20;1.10;;;;;;;;;;4937957;29;20222;-83
2021/07/29 00:55:21;;;;;;;1.60;1.48;;;;;;;;;;4938647;29;20186;-84
2021/07/29 00:57:49;;;;;;;1.98;1.50;;;;;;;;;;4938438;29;20182;-83
2021/07/29 01:00:18;;;;;;;1.55;1.45;;;;;;;;;;4938231;29;20696;-83
2021/07/29 01:02:45;;;;;;;1.92;1.40;;;;;;;;;;4938537;29;20246;-83
2021/07/29 01:05:13;;;;;;;1.50;1.40;;;;;;;;;;4938555;29;20194;-83
2021/07/29 01:07:42;;;;;;;1.17;1.10;;;;;;;;;;4938402;29;20194;-83
2021/07/29 01:10:10;;;;;;;1.20;1.15;;;;;;;;;;4938484;29;20217;-82
2021/07/29 01:12:38;;;;;;;1.20;1.20;;;;;;;;;;4938175;29;20696;-82
2021/07/29 01:15:07;;;;;;;1.65;1.35;;;;;;;;;;4938311;29;20803;-83
2021/07/29 01:17:34;;;;;;;1.58;1.48;;;;;;;;;;4938328;29;20186;-83
2021/07/29 01:20:03;;;;;;;1.40;1.30;;;;;;;;;;4938168;29;20222;-83
2021/07/29 01:22:36;;;;;;;1.13;1.13;;;;;;;;;;4938284;29;20205;-83
2021/07/29 01:25:05;;;;;;;1.40;1.30;;;;;;;;;;4938134;29;20653;-83
2021/07/29 01:27:33;;;;;;;1.40;1.30;;;;;;;;;;4938322;29;20249;-83
2021/07/29 01:30:02;;;;;;;1.30;1.20;;;;;;;;;;4938236;29;20261;-83
2021/07/29 01:32:30;;;;;;;1.70;1.60;;;;;;;;;;4938090;29;20296;-84
2021/07/29 01:34:58;;;;;;;1.17;1.17;;;;;;;;;;4937990;29;20652;-83
2021/07/29 01:37:26;;;;;;;1.33;1.23;;;;;;;;;;4938055;29;20182;-83
2021/07/29 01:39:54;;;;;;;1.50;1.40;;;;;;;;;;4937665;29;20226;-83
2021/07/29 01:42:23;;;;;;;1.80;1.30;;;;;;;;;;4936550;29;20189;-83
2021/07/29 01:44:50;;;;;;;1.45;1.35;;;;;;;;;;4937890;29;20189;-83
2021/07/29 01:47:18;;;;;;;1.60;1.50;;;;;;;;;;4937639;29;20194;-82
2021/07/29 01:49:45;;;;;;;1.63;1.42;;;;;;;;;;4936438;29;20326;-83
2021/07/29 01:52:13;;;;;;;1.30;1.20;;;;;;;;;;4937557;29;20212;-82
2021/07/29 01:54:40;;;;;;;1.40;1.30;;;;;;;;;;4937381;29;20229;-83
2021/07/29 01:57:10;;;;;;;1.10;1.05;;;;;;;;;;4937414;29;20194;-82
2021/07/29 01:59:38;;;;;;;1.40;1.27;;;;;;;;;;4937370;29;20222;-83
2021/07/29 02:02:06;;;;;;;1.38;1.30;;;;;;;;;;4937071;29;20665;-83
2021/07/29 02:04:36;;;;;;;1.05;1.05;;;;;;;;;;4937292;29;20213;-83
2021/07/29 02:07:04;;;;;;;1.23;1.20;;;;;;;;;;4937162;29;20182;-83
2021/07/29 02:09:31;;;;;;;2.20;1.55;;;;;;;;;;4937216;29;20234;-83
2021/07/29 02:11:59;;;;;;;1.63;1.40;;;;;;;;;;4937006;29;20194;-83
2021/07/29 02:14:29;;;;;;;1.58;1.48;;;;;;;;;;4937079;29;20287;-85
2021/07/29 02:16:57;;;;;;;1.30;1.20;;;;;;;;;;4937087;29;20556;-84
2021/07/29 02:19:24;;;;;;;1.48;1.38;;;;;;;;;;4937168;29;20569;-84
2021/07/29 02:21:52;;;;;;;1.40;1.30;;;;;;;;;;4936820;29;20194;-83
2021/07/29 02:24:19;;;;;;;2.22;1.40;;;;;;;;;;4936938;29;20789;-83
2021/07/29 02:26:47;;;;;;;1.17;1.15;;;;;;;;;;4949669;29;20203;-83
2021/07/29 02:29:14;;;;;;;1.58;1.48;;;;;;;;;;4938106;29;20233;-85
2021/07/29 02:31:43;;;;;;;1.20;1.20;;;;;;;;;;4936461;29;20217;-82
2021/07/29 02:34:10;;;;;;;1.30;1.23;;;;;;;;;;4936546;29;20214;-84
2021/07/29 02:36:38;;;;;;;2.08;1.10;;;;;;;;;;4936814;29;20206;-83
2021/07/29 02:39:05;;;;;;;2.45;1.30;;;;;;;;;;4935934;29;20298;-82
2021/07/29 02:41:34;;;;;;;1.58;1.30;;;;;;;;;;4935430;29;20190;-82
2021/07/29 02:44:01;;;;;;;2.20;1.50;;;;;;;;;;4936542;29;20187;-82
2021/07/29 02:46:29;;;;;;;1.13;1.13;;;;;;;;;;4936576;29;20194;-82
2021/07/29 02:48:58;;;;;;;1.52;1.42;;;;;;;;;;4936307;29;20190;-82
2021/07/29 02:51:25;;;;;;;1.63;1.30;;;;;;;;;;4936172;29;20206;-82
2021/07/29 02:53:53;;;;;;;1.50;1.40;;;;;;;;;;4935995;29;20217;-82
2021/07/29 02:56:20;;;;;;;1.85;1.30;;;;;;;;;;4936195;29;20185;-82
2021/07/29 02:58:48;;;;;;;1.60;1.50;;;;;;;;;;4936348;29;20214;-82
2021/07/29 03:01:16;;;;;;;1.25;1.23;;;;;;;;;;4936057;29;20209;-82
2021/07/29 03:03:44;;;;;;;1.60;1.50;;;;;;;;;;4936053;29;20622;-82
2021/07/29 03:06:13;;;;;;;1.45;1.30;;;;;;;;;;4936359;29;20262;-82
2021/07/29 03:08:40;;;;;;;1.35;1.25;;;;;;;;;;4936255;29;20544;-83
2021/07/29 03:11:11;;;;;;;2.22;1.52;;;;;;;;;;4936320;29;20194;-83
2021/07/29 03:13:38;;;;;;;1.50;1.40;;;;;;;;;;4936205;29;20218;-82
2021/07/29 03:16:06;;;;;;;1.38;1.27;;;;;;;;;;4936102;29;20205;-82
2021/07/29 03:18:35;;;;;;;1.48;1.38;;;;;;;;;;4935714;29;20190;-82
2021/07/29 03:21:02;;;;;;;1.33;1.20;;;;;;;;;;4935593;29;20230;-82
2021/07/29 03:23:31;;;;;;;1.98;1.48;;;;;;;;;;4936030;29;20194;-82
2021/07/29 03:25:58;;;;;;;1.70;1.60;;;;;;;;;;4935747;29;20202;-82
2021/07/29 03:28:26;;;;;;;1.60;1.50;;;;;;;;;;4935718;29;20186;-82
2021/07/29 03:30:53;;;;;;;1.17;1.08;;;;;;;;;;4935524;29;20218;-82
2021/07/29 03:33:21;;;;;;;1.50;1.40;;;;;;;;;;4935672;29;20595;-84
2021/07/29 03:35:49;;;;;;;1.90;1.80;;;;;;;;;;4936100;29;20194;-83
2021/07/29 03:38:18;;;;;;;1.52;1.42;;;;;;;;;;4936014;29;20194;-87
2021/07/29 03:40:47;;;;;;;1.45;1.35;;;;;;;;;;4935800;29;20252;-84
2021/07/29 03:43:14;;;;;;;1.50;1.40;;;;;;;;;;4936163;29;20179;-84
2021/07/29 03:45:44;;;;;;;1.65;1.55;;;;;;;;;;4936380;29;20201;-84
2021/07/29 03:48:11;;;;;;;1.55;1.45;;;;;;;;;;4935620;29;20252;-83
2021/07/29 03:50:40;;;;;;;2.42;1.48;;;;;;;;;;4935358;29;20236;-84
2021/07/29 03:53:08;;;;;;;1.85;1.75;;;;;;;;;;4936106;29;20190;-83
2021/07/29 03:55:35;;;;;;;2.05;1.60;;;;;;;;;;4935764;29;20209;-83
2021/07/29 03:58:04;;;;;;;2.00;1.80;;;;;;;;;;4935806;29;20205;-84
2021/07/29 04:00:31;;;;;;;1.90;1.80;;;;;;;;;;4935677;29;20229;-83
2021/07/29 04:03:00;;;;;;;1.67;1.58;;;;;;;;;;4935316;29;20197;-83
2021/07/29 04:05:27;;;;;;;1.52;1.42;;;;;;;;;;4934341;29;20241;-83
2021/07/29 04:07:55;;;;;;;1.40;1.30;;;;;;;;;;4935277;29;20245;-83
2021/07/29 04:10:22;;;;;;;1.20;1.10;;;;;;;;;;4935680;29;20226;-83
2021/07/29 04:12:50;;;;;;;1.75;1.65;;;;;;;;;;4935372;29;20185;-85
2021/07/29 04:15:19;;;;;;;1.38;1.27;;;;;;;;;;4935742;29;20217;-84
2021/07/29 04:17:46;;;;;;;1.65;1.50;;;;;;;;;;4935043;29;20205;-84
2021/07/29 04:20:14;;;;;;;1.85;1.60;;;;;;;;;;4934893;29;20236;-84
2021/07/29 04:22:41;;;;;;;1.60;1.50;;;;;;;;;;4935045;29;20190;-85
2021/07/29 04:25:10;;;;;;;1.90;1.80;;;;;;;;;;4935167;29;20192;-84
2021/07/29 04:27:37;;;;;;;1.77;1.67;;;;;;;;;;4934885;29;20668;-84
2021/07/29 04:30:05;;;;;;;2.05;1.90;;;;;;;;;;4934838;29;20225;-84
2021/07/29 04:32:36;;;;;;;2.28;1.60;;;;;;;;;;4935156;29;20197;-84
2021/07/29 04:35:04;;;;;;;1.50;1.40;;;;;;;;;;4934978;29;20210;-85
2021/07/29 04:37:31;;;;;;;1.33;1.23;;;;;;;;;;4935169;29;20204;-84
2021/07/29 04:39:59;;;;;;;1.25;1.20;;;;;;;;;;4935297;29;20236;-84
2021/07/29 04:42:27;;;;;;;1.45;1.35;;;;;;;;;;4935162;29;20190;-84
2021/07/29 04:44:54;;;;;;;1.40;1.30;;;;;;;;;;4934821;29;20571;-84
2021/07/29 04:47:21;;;;;;;1.73;1.63;;;;;;;;;;4935029;29;20196;-84
2021/07/29 04:50:11;;;;;;;1.65;1.55;;;;;;;;;;4936366;29;20238;-85
2021/07/29 04:52:38;;;;;;;1.40;1.30;;;;;;;;;;4935427;29;20293;-84
2021/07/29 04:55:07;;;;;;;2.28;1.95;;;;;;;;;;4934703;29;20236;-84
2021/07/29 04:57:34;;;;;;;1.10;1.10;;;;;;;;;;4934684;29;20214;-84
2021/07/29 05:00:02;;;;;;;1.40;1.30;;;;;;;;;;4934782;29;20221;-83
2021/07/29 05:04:55;;;;;;;2.10;1.40;;;;;;;;;;5020755;23;20243;-83
2021/07/29 05:07:24;;;;;;;3.13;1.40;;;;;;;;;;4989313;28;20192;-86
2021/07/29 05:09:51;;;;;;;1.10;1.10;;;;;;;;;;4989867;28;20194;-85
2021/07/29 05:12:19;;;;;;;1.30;1.20;;;;;;;;;;4988217;28;20207;-84
2021/07/29 05:14:54;;;;;;;1.20;1.10;;;;;;;;;;4988958;28;20243;-85
2021/07/29 05:17:21;;;;;;;1.33;1.23;;;;;;;;;;4992040;28;20625;-83
2021/07/29 05:19:48;;;;;;;1.35;1.25;;;;;;;;;;4993646;28;20206;-83
2021/07/29 05:22:16;;;;;;;1.50;1.40;;;;;;;;;;4994092;28;20196;-82
2021/07/29 05:24:45;;;;;;;1.40;1.30;;;;;;;;;;4977810;28;20212;-83
2021/07/29 05:27:12;;;;;;;1.33;1.23;;;;;;;;;;4975302;28;20189;-82
2021/07/29 05:29:40;;;;;;;2.13;2.03;;;;;;;;;;4991590;28;20580;-82
2021/07/29 05:32:09;;;;;;;1.40;1.30;;;;;;;;;;4990246;28;20223;-82
2021/07/29 05:34:36;;;;;;;1.50;1.40;;;;;;;;;;4989169;28;20232;-82
2021/07/29 05:37:04;;;;;;;1.83;1.70;;;;;;;;;;4995588;28;20207;-82
2021/07/29 05:39:34;;;;;;;2.22;1.80;;;;;;;;;;4996760;28;20199;-82
2021/07/29 05:42:03;;;;;;;2.58;1.25;;;;;;;;;;4996094;28;20199;-82
2021/07/29 05:44:30;;;;;;;1.73;1.63;;;;;;;;;;4996388;28;20372;-83
2021/07/29 05:46:58;;;;;;;2.13;1.92;;;;;;;;;;4995860;28;20204;-82
2021/07/29 05:49:25;;;;;;;2.53;2.33;;;;;;;;;;4995054;28;20219;-82
2021/07/29 05:51:53;;;;;;;1.80;1.70;;;;;;;;;;4995547;28;20666;-82
2021/07/29 05:54:20;;;;;;;1.35;1.25;;;;;;;;;;4996788;28;20227;-82
2021/07/29 05:56:48;;;;;;;1.73;1.63;;;;;;;;;;4995181;28;20594;-82
2021/07/29 05:59:17;;;;;;;1.45;1.35;;;;;;;;;;4996144;28;20662;-81
2021/07/29 06:01:44;;;;;;;3.25;2.88;;;;;;;;;;4996093;28;20199;-83
2021/07/29 06:04:11;;;;;;;1.80;1.58;;;;;;;;;;4983730;28;20236;-82
2021/07/29 06:06:39;;;;;;;3.03;1.92;;;;;;;;;;4976018;28;20191;-82
2021/07/29 06:09:06;;;;;;;1.70;1.60;;;;;;;;;;4975579;28;20219;-83
2021/07/29 06:11:33;;;;;;;1.70;1.60;;;;;;;;;;4974092;28;20207;-83
2021/07/29 06:14:01;;;;;;;1.40;1.30;;;;;;;;;;4975907;28;20231;-82
2021/07/29 06:16:31;;;;;;;1.80;1.70;;;;;;;;;;4975414;28;20224;-82
2021/07/29 06:19:06;;;;;;;1.83;1.73;;;;;;;;;;4975101;28;20566;-82
2021/07/29 06:21:33;;;;;;;5.85;1.70;;;;;;;;;;4975710;28;20632;-82
2021/07/29 06:24:01;;;;;;;1.23;1.20;;;;;;;;;;4975692;28;20220;-86
2021/07/29 06:26:29;;;;;;;2.00;1.90;;;;;;;;;;4975354;28;20196;-87
2021/07/29 06:28:56;;;;;;;1.73;1.63;;;;;;;;;;4974149;28;20688;-84
2021/07/29 06:31:24;;;;;;;1.70;1.60;;;;;;;;;;4975449;28;20835;-83
2021/07/29 06:33:52;;;;;;;1.75;1.65;;;;;;;;;;4975176;28;20221;-83
2021/07/29 06:36:20;;;;;;;1.60;1.50;;;;;;;;;;4975032;28;20295;-83
2021/07/29 06:38:47;;;;;;;2.35;1.50;;;;;;;;;;4975025;28;20189;-81
2021/07/29 06:41:15;;;;;;;1.80;1.70;;;;;;;;;;4975519;28;20192;-82
2021/07/29 06:43:42;;;;;;;2.63;2.05;;;;;;;;;;4976577;28;20234;-82
2021/07/29 06:46:11;;;;;;;2.60;2.08;;;;;;;;;;4977162;28;20588;-82
2021/07/29 06:48:39;;;;;;;2.03;1.50;;;;;;;;;;4974174;28;20203;-81
2021/07/29 06:51:09;;;;;;;2.38;2.17;;;;;;;;;;4957967;29;20202;-81
2021/07/29 06:53:38;;;;;;;1.40;1.30;;;;;;;;;;4956082;29;20221;-82
2021/07/29 06:56:06;;;;;;;1.70;1.60;;;;;;;;;;4965076;28;20353;-81
2021/07/29 06:58:35;;;;;;;1.60;1.50;;;;;;;;;;4976549;28;20192;-81
2021/07/29 07:01:03;;;;;;;2.00;1.80;;;;;;;;;;4975498;28;20563;-81
2021/07/29 07:03:31;;;;;;;1.42;1.33;;;;;;;;;;4975028;28;20239;-81
2021/07/29 07:06:01;;;;;;;1.55;1.45;;;;;;;;;;4974887;28;20671;-81
2021/07/29 07:08:29;;;;;;;1.90;1.80;;;;;;;;;;4974960;28;20188;-81
2021/07/29 07:10:57;;;;;;;1.73;1.55;;;;;;;;;;4974539;28;20208;-82
2021/07/29 07:13:24;;;;;;;2.05;1.88;;;;;;;;;;4975380;28;20227;-81
2021/07/29 07:15:52;;;;;;;1.88;1.75;;;;;;;;;;4971360;28;20228;-83
2021/07/29 07:18:20;;;;;;;1.70;1.60;;;;;;;;;;4974567;28;20214;-81
2021/07/29 07:20:47;;;;;;;1.77;1.67;;;;;;;;;;4974713;28;20197;-82
2021/07/29 07:23:15;;;;;;;3.03;1.98;;;;;;;;;;4974205;28;20224;-82
2021/07/29 07:25:44;;;;;;;2.10;2.00;;;;;;;;;;4975191;28;20204;-83
2021/07/29 07:28:12;;;;;;;3.95;1.80;;;;;;;;;;4975418;28;20230;-82
2021/07/29 07:30:40;;;;;;;1.60;1.50;;;;;;;;;;4974220;28;20205;-83
2021/07/29 07:33:08;;;;;;;2.13;1.92;;;;;;;;;;4974592;28;20232;-83
2021/07/29 07:35:35;;;;;;;1.40;1.30;;;;;;;;;;4973563;28;20199;-82
2021/07/29 07:38:03;;;;;;;1.42;1.33;;;;;;;;;;4973599;28;20228;-82
2021/07/29 07:40:30;;;;;;;1.50;1.40;;;;;;;;;;4974738;28;20188;-82
2021/07/29 07:42:59;;;;;;;1.63;1.52;;;;;;;;;;4974262;28;20232;-82
2021/07/29 07:45:27;;;;;;;2.08;1.60;;;;;;;;;;4974244;28;20214;-82
2021/07/29 07:47:54;;;;;;;1.85;1.70;;;;;;;;;;4974153;28;20207;-82
2021/07/29 07:50:22;;;;;;;1.83;1.73;;;;;;;;;;4973794;28;20215;-83
2021/07/29 07:52:49;;;;;;;1.88;1.30;;;;;;;;;;4973450;28;20204;-82
2021/07/29 07:55:17;;;;;;;1.60;1.50;;;;;;;;;;4973894;28;20204;-83
2021/07/29 07:57:45;;;;;;;2.80;1.90;;;;;;;;;;4973679;28;20231;-82
2021/07/29 08:00:15;;;;;;;1.75;1.65;;;;;;;;;;4973742;28;20204;-82
2021/07/29 08:02:43;;;;;;;1.83;1.73;;;;;;;;;;4974904;28;20232;-82
2021/07/29 08:05:11;;;;;;;1.30;1.20;;;;;;;;;;4974241;28;20198;-82
2021/07/29 08:07:38;;;;;;;2.95;1.90;;;;;;;;;;4974164;28;20204;-82
2021/07/29 08:10:07;;;;;;;1.80;1.70;;;;;;;;;;4974146;28;20223;-81
2021/07/29 08:12:34;;;;;;;1.67;1.58;;;;;;;;;;4954161;29;20595;-82
2021/07/29 08:15:02;;;;;;;2.03;1.70;;;;;;;;;;4965891;28;20214;-82
2021/07/29 08:17:31;;;;;;;1.20;1.20;;;;;;;;;;4974256;28;20216;-82
2021/07/29 08:19:59;;;;;;;1.50;1.40;;;;;;;;;;4974274;28;20224;-81
2021/07/29 08:22:26;;;;;;;2.45;1.42;;;;;;;;;;4973836;28;20640;-82
2021/07/29 08:24:53;;;;;;;1.60;1.50;;;;;;;;;;4972619;28;20228;-82
2021/07/29 08:27:21;;;;;;;1.60;1.50;;;;;;;;;;4975203;28;20189;-82
2021/07/29 08:29:48;;;;;;;1.73;1.63;;;;;;;;;;4982114;28;20200;-82
2021/07/29 08:32:16;;;;;;;1.67;1.40;;;;;;;;;;4994230;28;20207;-82
2021/07/29 08:34:45;;;;;;;2.50;2.22;;;;;;;;;;4984485;28;20224;-81
2021/07/29 08:37:14;;;;;;;1.90;1.80;;;;;;;;;;4973801;28;20717;-83
2021/07/29 08:39:42;;;;;;;1.73;1.63;;;;;;;;;;4973462;28;20208;-83
2021/07/29 08:42:09;;;;;;;1.60;1.50;;;;;;;;;;4974354;28;20559;-82
2021/07/29 08:44:37;;;;;;;1.52;1.42;;;;;;;;;;4972810;28;20235;-81
2021/07/29 08:47:08;;;;;;;1.38;1.27;;;;;;;;;;4973370;28;20184;-82
2021/07/29 08:49:39;;;;;;;1.77;1.67;;;;;;;;;;4973392;28;20670;-83
2021/07/29 08:52:09;;;;;;;1.67;1.55;;;;;;;;;;4975218;28;20227;-82
2021/07/29 08:54:39;;;;;;;1.50;1.40;;;;;;;;;;4977059;28;20232;-82
2021/07/29 08:57:07;;;;;;;2.22;1.83;;;;;;;;;;4976977;28;20255;-82
2021/07/29 08:59:34;;;;;;;1.67;1.58;;;;;;;;;;4976302;28;20204;-83
2021/07/29 09:02:01;;;;;;;1.80;1.70;;;;;;;;;;4977241;28;20211;-83
2021/07/29 09:04:29;;;;;;;1.25;1.20;;;;;;;;;;4976403;28;20247;-83
2021/07/29 09:06:58;;;;;;;1.42;1.25;;;;;;;;;;4978775;28;20259;-82
2021/07/29 09:09:45;;;;;;;1.30;1.23;;;;;;;;;;4977980;28;20224;-83
2021/07/29 09:12:18;;;;;;;1.15;1.15;;;;;;;;;;4978006;28;20222;-82
2021/07/29 09:14:46;;;;;;;2.05;1.85;;;;;;;;;;4978399;28;20624;-82
2021/07/29 09:17:14;;;;;;;1.83;1.73;;;;;;;;;;4978434;28;20209;-82
2021/07/29 09:19:44;;;;;;;1.40;1.30;;;;;;;;;;4976077;28;20232;-82
2021/07/29 09:22:15;;;;;;;1.38;1.30;;;;;;;;;;4976831;28;20197;-82
2021/07/29 09:25:04;;;;;;;1.50;1.40;;;;;;;;;;4976341;28;20226;-82
2021/07/29 09:27:47;;;;;;;2.15;1.58;;;;;;;;;;4976602;28;20295;-82
2021/07/29 09:30:21;;;;;;;1.30;1.20;;;;;;;;;;4976535;28;20192;-82
2021/07/29 09:33:00;;;;;;;1.50;1.40;;;;;;;;;;4976678;28;20201;-82
2021/07/29 09:35:44;;;;;;;1.45;1.33;;;;;;;;;;4976273;28;20327;-82
2021/07/29 09:38:22;;;;;;;1.10;1.10;;;;;;;;;;4975579;28;20248;-82
2021/07/29 09:40:54;;;;;;;1.50;1.40;;;;;;;;;;4976298;28;20689;-81
2021/07/29 09:43:22;;;;;;;1.75;1.65;;;;;;;;;;4975756;28;20239;-82
2021/07/29 09:45:53;;;;;;;1.25;1.23;;;;;;;;;;4975951;28;20601;-82
2021/07/29 09:48:22;;;;;;;1.60;1.30;;;;;;;;;;4976287;28;20195;-82
2021/07/29 09:50:51;;;;;;;1.65;1.55;;;;;;;;;;4976219;28;20188;-83
2021/07/29 09:53:19;;;;;;;1.63;1.30;;;;;;;;;;4975930;28;20231;-82
2021/07/29 09:55:47;;;;;;;1.83;1.58;;;;;;;;;;4975825;28;20280;-82
2021/07/29 09:58:16;;;;;;;1.00;0.98;;;;;;;;;;4975518;28;20246;-82
2021/07/29 10:00:43;;;;;;;1.30;1.17;;;;;;;;;;4975697;28;20674;-82
2021/07/29 10:03:11;;;;;;;1.08;1.05;;;;;;;;;;4981222;28;20238;-82
2021/07/29 10:05:50;;;;;;;1.10;1.10;;;;;;;;;;4999278;28;20215;-84
2021/07/29 10:08:25;;;;;;;2.42;1.35;;;;;;;;;;4995860;28;20195;-83
2021/07/29 10:10:52;;;;;;;1.23;1.13;;;;;;;;;;4995229;28;20206;-83
2021/07/29 10:13:34;;;;;;;1.50;1.40;;;;;;;;;;4995607;28;20227;-83
2021/07/29 10:16:02;;;;;;;1.15;1.15;;;;;;;;;;5014060;28;20184;-84
2021/07/29 10:19:06;;;;;;;1.02;1.00;;;;;;;;;;5015384;28;20306;-84
2021/07/29 10:21:36;;;;;;;1.17;1.10;;;;;;;;;;5015980;28;20621;-84
2021/07/29 10:24:05;;;;;;;1.77;1.67;;;;;;;;;;5013376;28;20240;-86
2021/07/29 10:26:35;;;;;;;1.70;1.60;;;;;;;;;;4996202;28;20188;-86
2021/07/29 10:29:29;;;;;;;1.52;1.42;;;;;;;;;;4995007;28;20203;-86
2021/07/29 10:31:59;;;;;;;1.40;1.30;;;;;;;;;;4978055;28;20203;-86
2021/07/29 10:34:29;;;;;;;1.10;1.10;;;;;;;;;;4999817;28;20232;-86
2021/07/29 10:36:57;;;;;;;1.60;1.50;;;;;;;;;;4995085;28;20211;-84
2021/07/29 10:39:26;;;;;;;1.60;1.50;;;;;;;;;;4995748;28;20212;-84
2021/07/29 10:41:56;;;;;;;1.20;1.20;;;;;;;;;;4987851;28;20254;-85
2021/07/29 10:44:51;;;;;;;2.15;1.90;;;;;;;;;;4994388;28;20227;-85
2021/07/29 10:47:39;;;;;;;1.70;1.50;;;;;;;;;;4959847;28;20211;-85
2021/07/29 10:50:12;;;;;;;1.70;1.60;;;;;;;;;;5015033;28;20191;-83
2021/07/29 10:52:40;;;;;;;0.93;0.93;;;;;;;;;;5014167;28;20202;-84
2021/07/29 10:55:11;;;;;;;0.93;0.93;;;;;;;;;;5001697;28;20204;-84
2021/07/29 10:57:40;;;;;;;1.55;1.20;;;;;;;;;;4994014;28;20192;-85
2021/07/29 11:00:11;;;;;;;1.08;1.08;;;;;;;;;;4994511;28;20287;-84
2021/07/29 11:02:47;;;;;;;1.27;1.20;;;;;;;;;;4994561;28;20188;-83
2021/07/29 11:05:20;;;;;;;0.90;0.90;;;;;;;;;;4974659;28;20242;-83
2021/07/29 11:07:49;;;;;;;1.27;1.27;;;;;;;;;;4975113;28;20188;-85
2021/07/29 11:10:17;;;;;;;1.10;1.10;;;;;;;;;;4974505;28;20208;-84
2021/07/29 11:12:48;;;;;;;1.17;1.08;;;;;;;;;;4973784;28;20212;-84
2021/07/29 11:15:16;;;;;;;1.35;1.35;;;;;;;;;;4974289;28;20204;-84
2021/07/29 11:17:44;;;;;;;1.08;1.05;;;;;;;;;;4975105;28;20583;-85
2021/07/29 11:20:12;;;;;;;1.15;1.13;;;;;;;;;;4976163;28;20224;-87
2021/07/29 11:22:46;;;;;;;1.30;1.30;;;;;;;;;;4976106;28;20562;-84
2021/07/29 11:25:15;;;;;;;1.23;1.20;;;;;;;;;;4975445;28;20196;-84
2021/07/29 11:27:43;;;;;;;1.13;1.10;;;;;;;;;;4975781;28;20181;-84
2021/07/29 11:30:12;;;;;;;0.95;0.95;;;;;;;;;;4976313;28;20189;-84
2021/07/29 11:32:43;;;;;;;1.65;1.55;;;;;;;;;;4975912;28;20208;-83
2021/07/29 11:35:14;;;;;;;1.35;1.30;;;;;;;;;;4976288;28;20196;-83
2021/07/29 11:37:43;;;;;;;1.10;1.10;;;;;;;;;;4975631;28;20284;-84
2021/07/29 11:40:19;;;;;;;1.60;1.50;;;;;;;;;;4976195;28;20602;-83
2021/07/29 11:42:47;;;;;;;1.60;1.50;;;;;;;;;;4975985;28;20184;-83
2021/07/29 11:45:27;;;;;;;1.15;1.05;;;;;;;;;;4974903;28;20185;-84
2021/07/29 11:48:00;;;;;;;2.25;1.30;;;;;;;;;;4975097;28;20208;-83
2021/07/29 11:50:41;;;;;;;1.23;1.20;;;;;;;;;;4974961;28;20253;-84
2021/07/29 11:53:10;;;;;;;1.05;1.00;;;;;;;;;;4974326;28;20224;-85
2021/07/29 11:55:39;;;;;;;1.40;1.30;;;;;;;;;;4958632;28;20215;-84
2021/07/29 11:58:10;;;;;;;1.20;1.10;;;;;;;;;;4954990;29;20268;-83
2021/07/29 12:00:39;;;;;;;2.22;1.52;;;;;;;;;;4955202;29;20249;-84
2021/07/29 12:03:07;;;;;;;6.88;1.25;;;;;;;;;;4955192;28;20244;-84
2021/07/29 12:05:35;;;;;;;1.10;1.10;;;;;;;;;;4954944;28;20201;-83
2021/07/29 12:08:04;;;;;;;1.00;1.00;;;;;;;;;;4955319;29;20193;-83
2021/07/29 12:10:32;;;;;;;1.40;1.30;;;;;;;;;;4954026;29;20237;-84
2021/07/29 12:13:00;;;;;;;1.60;1.25;;;;;;;;;;4954756;29;20225;-84
2021/07/29 12:15:27;;;;;;;1.23;1.13;;;;;;;;;;4968762;28;20199;-83
2021/07/29 12:18:16;;;;;;;1.50;1.40;;;;;;;;;;4973924;28;20597;-83
2021/07/29 12:20:44;;;;;;;1.52;1.17;;;;;;;;;;4973756;28;20679;-83
2021/07/29 12:23:12;;;;;;;1.52;1.10;;;;;;;;;;4974116;28;20228;-83
2021/07/29 12:25:41;;;;;;;1.25;1.20;;;;;;;;;;4973338;28;20670;-84
2021/07/29 12:28:09;;;;;;;1.20;1.10;;;;;;;;;;4974903;28;20195;-83
2021/07/29 12:30:39;;;;;;;1.17;0.93;;;;;;;;;;4974501;28;20601;-83
2021/07/29 12:33:11;;;;;;;1.10;1.00;;;;;;;;;;4973960;28;20228;-83
2021/07/29 12:35:42;;;;;;;1.48;1.38;;;;;;;;;;4973628;28;20196;-84
2021/07/29 12:38:11;;;;;;;1.13;1.13;;;;;;;;;;4973343;28;20195;-85
2021/07/29 12:40:38;;;;;;;1.15;0.90;;;;;;;;;;4973818;28;20205;-84
2021/07/29 12:43:26;;;;;;;1.15;1.05;;;;;;;;;;4973747;28;20315;-82
2021/07/29 12:45:55;;;;;;;1.15;1.08;;;;;;;;;;4963154;28;20201;-82
2021/07/29 12:48:24;;;;;;;1.08;0.98;;;;;;;;;;4955391;29;20203;-83
2021/07/29 12:50:54;;;;;;;1.83;1.00;;;;;;;;;;4957146;28;20200;-83
2021/07/29 12:53:22;;;;;;;1.20;1.20;;;;;;;;;;4974205;28;20224;-83
2021/07/29 12:55:52;;;;;;;1.08;1.08;;;;;;;;;;4968476;28;20236;-83
2021/07/29 12:58:37;;;;;;;1.00;1.00;;;;;;;;;;4955285;29;20208;-83
2021/07/29 13:01:04;;;;;;;1.08;1.08;;;;;;;;;;4954407;29;20225;-84
2021/07/29 13:03:34;;;;;;;1.20;1.10;;;;;;;;;;4965992;28;20313;-83
2021/07/29 13:06:03;;;;;;;1.27;1.00;;;;;;;;;;4973717;28;20205;-83
2021/07/29 13:08:32;;;;;;;1.60;1.52;;;;;;;;;;4973160;28;20193;-84
2021/07/29 13:11:00;;;;;;;0.95;0.90;;;;;;;;;;4972941;28;20902;-84
2021/07/29 13:13:31;;;;;;;1.38;1.10;;;;;;;;;;4972823;28;20229;-84
2021/07/29 13:15:58;;;;;;;1.00;1.00;;;;;;;;;;4972487;28;20730;-84
2021/07/29 13:18:26;;;;;;;1.27;1.17;;;;;;;;;;4972975;28;20200;-83
2021/07/29 13:20:55;;;;;;;0.80;0.80;;;;;;;;;;4972730;28;20295;-84
2021/07/29 13:23:25;;;;;;;1.65;1.55;;;;;;;;;;4973272;28;20229;-83
2021/07/29 13:25:53;;;;;;;1.58;1.48;;;;;;;;;;4972822;28;20655;-84
2021/07/29 13:28:23;;;;;;;0.80;0.80;;;;;;;;;;4973015;28;20534;-83
2021/07/29 13:30:51;;;;;;;1.35;1.10;;;;;;;;;;4973167;28;20192;-83
2021/07/29 13:33:19;;;;;;;1.40;1.25;;;;;;;;;;4972715;28;20228;-82
2021/07/29 13:35:47;;;;;;;1.40;1.30;;;;;;;;;;4973035;28;20576;-83
2021/07/29 13:38:14;;;;;;;1.60;1.15;;;;;;;;;;4974991;28;20567;-83
2021/07/29 13:40:43;;;;;;;1.05;1.05;;;;;;;;;;4976624;28;20228;-84
2021/07/29 13:43:11;;;;;;;2.33;1.30;;;;;;;;;;4976656;28;20228;-83
2021/07/29 13:45:38;;;;;;;0.82;0.82;;;;;;;;;;4975948;28;20192;-82
2021/07/29 13:48:06;;;;;;;0.90;0.90;;;;;;;;;;4976060;28;20212;-82
2021/07/29 13:50:34;;;;;;;1.25;1.23;;;;;;;;;;4975951;28;20625;-83
2021/07/29 13:53:03;;;;;;;1.20;1.13;;;;;;;;;;4976067;28;20228;-83
2021/07/29 13:55:31;;;;;;;1.30;1.20;;;;;;;;;;4976074;28;20199;-83
2021/07/29 13:58:01;;;;;;;1.00;1.00;;;;;;;;;;4976074;28;20995;-83
2021/07/29 14:00:28;;;;;;;0.98;0.98;;;;;;;;;;4974867;28;20671;-84
2021/07/29 14:02:56;;;;;;;1.05;1.05;;;;;;;;;;4976189;28;20230;-83
2021/07/29 14:05:23;;;;;;;0.85;0.85;;;;;;;;;;4994540;28;20661;-83
2021/07/29 14:07:51;;;;;;;1.00;1.00;;;;;;;;;;4993946;28;20646;-83
2021/07/29 14:10:19;;;;;;;0.90;0.90;;;;;;;;;;4995238;28;20187;-83
2021/07/29 14:12:51;;;;;;;1.13;1.02;;;;;;;;;;4995043;28;20196;-83
2021/07/29 14:15:20;;;;;;;1.10;1.10;;;;;;;;;;4994433;28;20682;-83
2021/07/29 14:17:52;;;;;;;0.95;0.95;;;;;;;;;;4995964;28;20298;-83
2021/07/29 14:20:24;;;;;;;1.02;1.00;;;;;;;;;;4995625;28;20234;-83
2021/07/29 14:25:45;;;;;;;0.90;0.85;;;;;;;;;;4962467;28;20208;-84
2021/07/29 14:28:14;;;;;;;1.17;1.17;;;;;;;;;;4975370;28;20191;-84
2021/07/29 14:30:44;;;;;;;0.80;0.80;;;;;;;;;;4975773;28;20251;-83
2021/07/29 14:33:12;;;;;;;0.77;0.77;;;;;;;;;;4975457;28;20222;-83
2021/07/29 14:35:42;;;;;;;1.65;1.33;;;;;;;;;;4991378;28;20628;-84
2021/07/29 14:38:10;;;;;;;0.88;0.88;;;;;;;;;;4995013;28;20710;-83
2021/07/29 14:40:38;;;;;;;0.80;0.80;;;;;;;;;;4994957;28;20822;-84
2021/07/29 14:43:07;;;;;;;1.40;1.30;;;;;;;;;;4994864;28;20234;-83
2021/07/29 14:48:50;;;;;;;1.17;1.08;;;;;;;;;;4994365;28;20254;-84
2021/07/29 14:51:17;;;;;;;0.80;0.80;;;;;;;;;;4994398;28;20217;-83
2021/07/29 14:53:45;;;;;;;0.80;0.80;;;;;;;;;;4994044;28;20232;-84
2021/07/29 14:56:23;;;;;;;1.05;1.02;;;;;;;;;;4994312;28;20203;-84
2021/07/29 16:08:01;;;;;;;1.67;1.05;;;;;;;;;;4973995;28;20959;-86
2021/07/29 16:10:33;;;;;;;1.38;1.10;;;;;;;;;;4974911;28;20200;-84
2021/07/29 16:13:01;;;;;;;1.40;0.93;;;;;;;;;;4973838;28;20244;-86
2021/07/29 16:15:28;;;;;;;1.20;0.93;;;;;;;;;;4974035;28;20196;-86